Time;durP1;ratioP1;P1;durP2;ratioP2;P2;SDS_P1;SDS_P2;PMS_P1;PMS_P2;Temp;Humidity;BMP_temperature;BMP_pressure;BME280_temperature;BME280_humidity;BME280_pressure;Samples;Min_cycle;Max_cycle;Signal;HPM_P1;HPM_P2
2023/03/13 00:02:26;;;;;;;14.43;3.58;;;7.80;1.00;;;;;;7370369;19;20017;-66
2023/03/13 00:04:56;;;;;;;9.05;3.13;;;7.80;1.00;;;;;;7370472;19;20033;-66
2023/03/13 00:07:29;;;;;;;12.90;2.97;;;7.80;1.00;;;;;;7371573;19;20033;-66
2023/03/13 00:09:58;;;;;;;12.77;3.10;;;7.80;1.00;;;;;;7369496;19;20474;-66
2023/03/13 00:12:28;;;;;;;9.38;3.45;;;7.90;1.00;;;;;;7392039;19;20018;-66
2023/03/13 00:14:58;;;;;;;9.00;3.50;;;7.80;1.00;;;;;;7369237;19;20026;-66
2023/03/13 00:17:29;;;;;;;9.43;3.97;;;7.90;1.00;;;;;;7368356;19;20589;-67
2023/03/13 00:19:58;;;;;;;10.60;3.30;;;7.80;1.00;;;;;;7368506;19;20022;-66
2023/03/13 00:22:31;;;;;;;11.93;3.75;;;7.90;1.00;;;;;;7368999;19;20459;-67
2023/03/13 00:25:00;;;;;;;13.32;3.53;;;7.90;1.00;;;;;;7370264;19;20024;-67
2023/03/13 00:27:34;;;;;;;11.68;3.72;;;7.90;1.00;;;;;;7392481;19;20470;-67
2023/03/13 00:30:04;;;;;;;11.38;3.47;;;7.90;1.00;;;;;;7368877;19;20017;-67
2023/03/13 00:32:34;;;;;;;10.90;3.15;;;7.90;1.00;;;;;;7368780;19;20003;-67
2023/03/13 00:35:04;;;;;;;10.75;3.33;;;8.00;1.00;;;;;;7367307;19;20006;-67
2023/03/13 00:37:37;;;;;;;13.88;3.72;;;8.00;1.00;;;;;;7370015;19;20050;-67
2023/03/13 00:40:08;;;;;;;10.50;3.60;;;8.10;1.00;;;;;;7369235;19;20010;-67
2023/03/13 00:42:38;;;;;;;9.75;3.40;;;8.10;1.00;;;;;;7369026;19;20025;-67
2023/03/13 00:45:09;;;;;;;17.27;4.75;;;8.10;1.00;;;;;;7391441;19;20478;-67
2023/03/13 00:47:38;;;;;;;10.02;3.03;;;8.20;1.00;;;;;;7370091;19;20086;-67
2023/03/13 00:50:09;;;;;;;14.05;4.53;;;8.20;1.00;;;;;;7367279;19;20018;-67
2023/03/13 00:52:41;;;;;;;9.05;3.75;;;8.20;1.00;;;;;;7368879;19;20018;-67
2023/03/13 00:55:12;;;;;;;8.35;3.33;;;8.20;1.00;;;;;;7368703;19;20013;-66
2023/03/13 00:57:41;;;;;;;13.68;3.78;;;8.20;1.00;;;;;;7370053;19;20011;-67
2023/03/13 01:00:15;;;;;;;8.32;3.28;;;8.30;1.00;;;;;;7389981;19;20007;-67
2023/03/13 01:02:45;;;;;;;9.02;3.30;;;8.30;1.00;;;;;;7368267;19;20015;-67
2023/03/13 01:05:15;;;;;;;12.57;3.83;;;8.30;1.00;;;;;;7369444;19;20462;-67
2023/03/13 01:07:47;;;;;;;11.15;3.65;;;8.30;1.00;;;;;;7370604;19;20497;-67
2023/03/13 01:10:17;;;;;;;10.68;3.40;;;8.30;1.00;;;;;;7368399;19;20467;-67
2023/03/13 01:12:47;;;;;;;9.93;3.45;;;8.40;1.00;;;;;;7367690;19;20011;-67
2023/03/13 01:15:18;;;;;;;10.90;3.72;;;8.40;1.00;;;;;;7389110;19;20039;-67
2023/03/13 01:17:48;;;;;;;11.40;3.53;;;8.30;1.00;;;;;;7369895;19;20014;-67
2023/03/13 01:20:18;;;;;;;10.65;3.35;;;8.40;1.00;;;;;;7367346;19;20002;-67
2023/03/13 01:22:51;;;;;;;8.90;3.47;;;8.40;1.00;;;;;;7368158;19;20114;-67
2023/03/13 01:25:20;;;;;;;8.40;3.67;;;8.40;1.00;;;;;;7367006;19;20031;-66
2023/03/13 01:27:50;;;;;;;11.20;3.53;;;8.40;1.00;;;;;;7369148;19;20019;-66
2023/03/13 01:30:20;;;;;;;11.40;3.70;;;8.40;1.00;;;;;;7388922;19;20529;-66
2023/03/13 01:32:50;;;;;;;13.27;4.35;;;8.40;1.00;;;;;;7367607;19;20011;-66
2023/03/13 01:35:20;;;;;;;11.68;3.67;;;8.40;1.00;;;;;;7367857;19;20019;-66
2023/03/13 01:37:52;;;;;;;12.57;3.63;;;8.30;1.00;;;;;;7368620;19;20015;-66
2023/03/13 01:40:22;;;;;;;13.13;3.72;;;8.30;1.00;;;;;;7367252;19;20458;-66
2023/03/13 01:42:53;;;;;;;9.80;3.70;;;8.30;1.00;;;;;;7366931;19;20021;-66
2023/03/13 01:45:55;;;;;;;10.75;3.78;;;8.40;1.00;;;;;;7389873;19;20018;-66
2023/03/13 01:48:28;;;;;;;14.57;3.20;;;8.40;1.00;;;;;;7365900;19;20003;-66
2023/03/13 01:51:00;;;;;;;11.93;3.05;;;8.40;1.00;;;;;;7366256;19;20022;-66
2023/03/13 01:53:34;;;;;;;8.55;3.58;;;8.40;1.00;;;;;;7365639;19;20023;-66
2023/03/13 01:56:07;;;;;;;11.43;3.72;;;8.40;1.00;;;;;;7368108;19;20010;-66
2023/03/13 01:58:39;;;;;;;9.50;3.10;;;8.40;1.00;;;;;;7367160;19;20486;-66
2023/03/13 02:01:09;;;;;;;11.48;3.58;;;8.40;1.00;;;;;;7367622;19;20371;-66
2023/03/13 02:03:39;;;;;;;12.48;4.05;;;8.50;1.00;;;;;;7365855;19;20018;-66
2023/03/13 02:06:10;;;;;;;11.65;3.35;;;8.40;1.00;;;;;;7390645;19;20015;-66
2023/03/13 02:08:48;;;;;;;15.07;4.35;;;8.40;1.00;;;;;;7366455;19;20018;-66
2023/03/13 02:11:25;;;;;;;12.88;3.60;;;8.50;1.00;;;;;;7366134;19;20497;-66
2023/03/13 02:13:57;;;;;;;14.75;3.78;;;8.40;1.00;;;;;;7366142;19;20478;-66
2023/03/13 02:16:28;;;;;;;8.82;2.63;;;8.40;1.00;;;;;;7367109;19;20011;-66
2023/03/13 02:18:58;;;;;;;9.52;3.30;;;8.40;1.00;;;;;;7367429;19;20015;-65
2023/03/13 02:21:40;;;;;;;13.65;3.17;;;8.50;1.00;;;;;;7387077;19;20080;-66
2023/03/13 02:24:19;;;;;;;11.98;3.30;;;8.50;1.00;;;;;;7367152;19;20011;-66
2023/03/13 02:26:52;;;;;;;6.38;2.80;;;8.50;1.00;;;;;;7367567;19;20010;-66
2023/03/13 02:29:22;;;;;;;10.18;3.05;;;8.60;1.00;;;;;;7365144;19;20014;-65
2023/03/13 02:31:53;;;;;;;13.52;3.00;;;8.60;1.00;;;;;;7365724;19;20003;-66
2023/03/13 02:34:27;;;;;;;8.93;2.78;;;8.60;1.00;;;;;;7364716;19;20007;-65
2023/03/13 02:36:58;;;;;;;7.53;2.88;;;8.70;1.00;;;;;;7367596;19;20021;-66
2023/03/13 02:39:30;;;;;;;9.60;2.95;;;8.70;1.00;;;;;;7387407;19;20480;-66
2023/03/13 02:42:04;;;;;;;8.82;2.88;;;8.60;1.00;;;;;;7366621;19;20486;-65
2023/03/13 02:44:39;;;;;;;8.55;3.40;;;8.60;1.00;;;;;;7365406;19;20006;-66
2023/03/13 02:47:09;;;;;;;9.57;3.10;;;8.60;1.00;;;;;;7367043;19;20781;-66
2023/03/13 02:49:39;;;;;;;12.75;3.38;;;8.60;1.00;;;;;;7364285;19;20459;-66
2023/03/13 02:52:14;;;;;;;10.90;3.45;;;8.60;1.00;;;;;;7366277;19;20509;-66
2023/03/13 02:54:46;;;;;;;7.97;3.22;;;8.50;1.00;;;;;;7365824;19;20107;-65
2023/03/13 02:57:18;;;;;;;12.63;2.90;;;8.60;1.00;;;;;;7389391;19;20023;-65
2023/03/13 02:59:48;;;;;;;8.73;2.70;;;8.60;1.00;;;;;;7370935;19;20014;-66
2023/03/13 03:02:18;;;;;;;7.07;2.70;;;8.60;1.00;;;;;;7372393;19;20011;-66
2023/03/13 03:04:48;;;;;;;10.05;3.00;;;8.50;1.00;;;;;;7372695;19;20014;-65
2023/03/13 03:07:17;;;;;;;8.27;2.55;;;8.50;1.00;;;;;;7373700;19;20410;-66
2023/03/13 03:09:47;;;;;;;10.80;2.47;;;8.50;1.00;;;;;;7371900;19;20014;-66
2023/03/13 03:12:19;;;;;;;10.15;2.85;;;8.60;1.00;;;;;;7394189;19;20014;-66
2023/03/13 03:14:49;;;;;;;11.88;2.95;;;8.50;1.00;;;;;;7371609;19;20403;-66
2023/03/13 03:17:19;;;;;;;4.70;2.55;;;8.50;1.00;;;;;;7373936;19;20023;-66
2023/03/13 03:19:49;;;;;;;10.82;2.63;;;8.50;1.00;;;;;;7371023;19;20010;-66
2023/03/13 03:22:19;;;;;;;10.00;2.65;;;8.50;1.00;;;;;;7371942;19;20570;-66
2023/03/13 03:24:49;;;;;;;7.78;3.08;;;8.50;1.00;;;;;;7372860;19;20011;-66
2023/03/13 03:27:21;;;;;;;8.45;2.80;;;8.60;1.00;;;;;;7395216;19;20010;-66
2023/03/13 03:29:51;;;;;;;7.85;2.30;;;8.60;1.00;;;;;;7370537;19;20034;-66
2023/03/13 03:32:20;;;;;;;12.85;2.53;;;8.60;1.00;;;;;;7370789;19;20012;-66
2023/03/13 03:34:51;;;;;;;9.15;2.28;;;8.50;2.30;;;;;;7371547;19;20011;-66
2023/03/13 03:37:21;;;;;;;9.57;2.40;;;8.50;3.90;;;;;;7371379;19;20034;-67
2023/03/13 03:39:51;;;;;;;8.07;2.35;;;8.50;5.00;;;;;;7371421;19;20025;-66
2023/03/13 03:42:23;;;;;;;8.30;2.30;;;8.50;7.20;;;;;;7391478;19;20086;-66
2023/03/13 03:44:53;;;;;;;5.05;1.50;;;8.50;8.10;;;;;;7371945;19;20011;-66
2023/03/13 03:47:22;;;;;;;6.60;1.65;;;8.50;8.20;;;;;;7372622;19;20010;-66
2023/03/13 03:49:52;;;;;;;6.25;2.00;;;8.50;8.50;;;;;;7368752;19;20018;-66
2023/03/13 03:52:22;;;;;;;5.50;2.03;;;8.60;8.30;;;;;;7370603;19;20025;-66
2023/03/13 03:55:00;;;;;;;8.65;2.00;;;8.60;8.50;;;;;;7370689;19;20011;-66
2023/03/13 03:57:33;;;;;;;4.60;1.58;;;8.60;8.20;;;;;;7394639;19;20014;-66
2023/03/13 04:00:04;;;;;;;6.07;1.58;;;8.60;8.70;;;;;;7370010;19;20511;-66
2023/03/13 04:02:33;;;;;;;5.10;1.60;;;8.60;9.20;;;;;;7368135;19;20018;-66
2023/03/13 04:05:04;;;;;;;5.95;1.90;;;8.70;8.50;;;;;;7371165;19;20488;-65
2023/03/13 04:07:34;;;;;;;9.23;1.80;;;8.80;7.70;;;;;;7371991;19;20021;-66
2023/03/13 04:10:04;;;;;;;6.68;1.67;;;8.80;7.70;;;;;;7367154;19;20015;-66
2023/03/13 04:12:36;;;;;;;4.65;1.67;;;8.70;8.10;;;;;;7380959;19;20022;-66
2023/03/13 04:15:07;;;;;;;3.67;1.20;;;8.80;7.80;;;;;;7392561;19;20019;-66
2023/03/13 04:17:36;;;;;;;4.60;1.85;;;8.80;8.10;;;;;;7371353;19;20006;-66
2023/03/13 04:20:09;;;;;;;5.90;1.70;;;9.00;7.80;;;;;;7369040;19;20014;-65
2023/03/13 04:22:38;;;;;;;5.65;1.65;;;9.10;7.20;;;;;;7369313;19;20017;-65
2023/03/13 04:25:10;;;;;;;5.32;1.15;;;9.20;6.70;;;;;;7370900;19;20022;-65
2023/03/13 04:27:42;;;;;;;4.65;1.42;;;9.20;6.80;;;;;;7370797;19;20482;-65
2023/03/13 04:30:13;;;;;;;3.95;1.42;;;9.20;7.50;;;;;;7390717;19;20014;-66
2023/03/13 04:32:46;;;;;;;3.47;1.17;;;9.20;7.50;;;;;;7369665;19;20025;-65
2023/03/13 04:35:16;;;;;;;3.95;1.30;;;9.30;8.00;;;;;;7369169;19;20015;-66
2023/03/13 04:37:46;;;;;;;2.88;1.30;;;9.60;7.00;;;;;;7369492;19;20491;-66
2023/03/13 04:40:16;;;;;;;2.40;0.90;;;9.80;6.90;;;;;;7369530;19;20007;-65
2023/03/13 04:42:48;;;;;;;4.20;0.98;;;10.00;6.50;;;;;;7368975;19;20014;-65
2023/03/13 04:45:18;;;;;;;2.28;0.90;;;10.30;7.20;;;;;;7392398;19;20462;-65
2023/03/13 04:47:48;;;;;;;0.77;0.60;;;10.50;7.10;;;;;;7370433;19;20468;-65
2023/03/13 04:50:18;;;;;;;1.05;0.50;;;10.70;6.00;;;;;;7367119;19;20010;-65
2023/03/13 04:52:48;;;;;;;2.45;0.60;;;11.00;6.20;;;;;;7368931;19;20732;-65
2023/03/13 04:55:18;;;;;;;1.73;0.63;;;11.00;4.80;;;;;;7369778;19;20101;-65
2023/03/13 04:57:50;;;;;;;3.80;0.63;;;11.00;4.80;;;;;;7369122;19;20019;-65
2023/03/13 05:00:21;;;;;;;0.85;0.40;;;11.10;4.80;;;;;;7388358;19;20048;-65
2023/03/13 05:02:51;;;;;;;1.95;0.75;;;11.20;4.90;;;;;;7368627;19;20006;-65
2023/03/13 05:05:20;;;;;;;2.85;0.50;;;11.10;4.80;;;;;;7368614;19;20461;-65
2023/03/13 05:07:50;;;;;;;3.10;0.60;;;11.20;4.60;;;;;;7369572;19;20006;-65
2023/03/13 05:10:20;;;;;;;1.38;0.50;;;11.20;4.40;;;;;;7366907;19;20011;-65
2023/03/13 05:12:52;;;;;;;2.05;0.52;;;11.20;4.90;;;;;;7368740;19;20512;-65
2023/03/13 05:15:22;;;;;;;1.55;0.50;;;11.20;4.80;;;;;;7389553;19;20010;-65
2023/03/13 05:17:52;;;;;;;1.35;0.55;;;11.20;4.90;;;;;;7370087;19;20011;-65
2023/03/13 05:20:23;;;;;;;2.10;0.85;;;11.20;4.90;;;;;;7365033;19;20758;-65
2023/03/13 05:22:53;;;;;;;2.40;0.60;;;11.20;5.20;;;;;;7367981;19;20386;-66
2023/03/13 05:25:22;;;;;;;1.42;0.75;;;11.20;4.90;;;;;;7367289;19;20014;-65
2023/03/13 05:27:55;;;;;;;1.38;0.50;;;11.30;4.70;;;;;;7369138;19;20022;-66
2023/03/13 05:30:27;;;;;;;0.73;0.50;;;11.20;4.60;;;;;;7388830;19;20017;-65
2023/03/13 05:32:56;;;;;;;1.35;0.60;;;11.30;5.50;;;;;;7367698;19;20351;-66
2023/03/13 05:35:26;;;;;;;1.15;0.70;;;11.30;4.00;;;;;;7368233;19;20015;-66
2023/03/13 05:37:56;;;;;;;1.10;0.60;;;11.30;4.20;;;;;;7368200;19;20019;-66
2023/03/13 05:40:26;;;;;;;2.80;1.00;;;11.30;4.30;;;;;;7366358;19;20015;-66
2023/03/13 05:42:58;;;;;;;1.58;0.70;;;11.40;4.40;;;;;;7367813;19;20015;-66
2023/03/13 05:45:28;;;;;;;0.77;0.50;;;11.30;4.10;;;;;;7389702;19;20578;-66
2023/03/13 05:47:58;;;;;;;1.58;0.70;;;11.40;3.70;;;;;;7368892;19;20014;-66
2023/03/13 05:50:28;;;;;;;1.48;0.75;;;11.40;3.10;;;;;;7364984;19;20083;-66
2023/03/13 05:52:57;;;;;;;1.83;0.52;;;11.50;2.70;;;;;;7366659;19;20030;-66
2023/03/13 05:55:27;;;;;;;2.13;0.50;;;11.50;1.70;;;;;;7366755;19;20419;-66
2023/03/13 05:58:00;;;;;;;3.63;1.10;;;11.50;2.20;;;;;;7367209;19;20024;-65
2023/03/13 06:00:29;;;;;;;1.42;0.70;;;11.60;2.60;;;;;;7386981;19;20018;-66
2023/03/13 06:02:59;;;;;;;0.88;0.50;;;11.60;1.50;;;;;;7367131;19;20022;-65
2023/03/13 06:05:29;;;;;;;1.90;0.60;;;11.50;1.90;;;;;;7366995;19;20015;-66
2023/03/13 06:07:59;;;;;;;1.80;0.50;;;11.50;2.60;;;;;;7368034;19;20466;-66
2023/03/13 06:10:29;;;;;;;1.35;0.52;;;11.50;2.30;;;;;;7365104;19;20045;-66
2023/03/13 06:13:01;;;;;;;1.40;0.52;;;11.60;2.60;;;;;;7366629;19;20776;-65
2023/03/13 06:15:52;;;;;;;0.60;0.43;;;11.60;2.50;;;;;;7367355;19;20078;-66
2023/03/13 06:18:23;;;;;;;1.00;0.60;;;11.50;2.70;;;;;;7385553;19;20470;-66
2023/03/13 06:20:58;;;;;;;1.10;0.47;;;11.60;3.00;;;;;;7363763;19;20010;-66
2023/03/13 06:23:29;;;;;;;1.20;0.70;;;11.60;2.50;;;;;;7366900;19;20030;-66
2023/03/13 06:25:59;;;;;;;1.58;0.40;;;11.60;2.40;;;;;;7366483;19;20006;-65
2023/03/13 06:28:31;;;;;;;1.13;0.50;;;11.70;2.00;;;;;;7366879;19;20549;-66
2023/03/13 06:31:03;;;;;;;1.58;0.90;;;11.70;2.40;;;;;;7364003;19;20015;-66
2023/03/13 06:33:33;;;;;;;1.20;0.57;;;11.80;1.60;;;;;;7382888;19;20011;-66
2023/03/13 06:36:04;;;;;;;0.77;0.55;;;11.90;1.60;;;;;;7395563;19;20011;-66
2023/03/13 06:38:34;;;;;;;3.38;0.68;;;11.90;1.60;;;;;;7372274;19;20514;-66
2023/03/13 06:41:04;;;;;;;3.33;0.80;;;12.00;1.00;;;;;;7371984;19;20014;-65
2023/03/13 06:43:39;;;;;;;1.05;0.50;;;12.00;1.10;;;;;;7372897;19;20011;-66
2023/03/13 06:46:10;;;;;;;1.45;0.98;;;12.00;1.60;;;;;;7374103;19;20014;-66
2023/03/13 06:48:39;;;;;;;1.58;1.00;;;12.10;1.00;;;;;;7373526;19;20430;-66
2023/03/13 06:51:13;;;;;;;3.38;0.98;;;12.10;1.00;;;;;;7391903;19;20010;-66
2023/03/13 06:53:43;;;;;;;3.03;0.60;;;12.00;1.20;;;;;;7371487;19;20086;-65
2023/03/13 06:56:13;;;;;;;0.88;0.40;;;12.00;1.70;;;;;;7373678;19;20026;-66
2023/03/13 06:58:48;;;;;;;2.15;0.70;;;12.00;1.60;;;;;;7371236;19;20021;-66
2023/03/13 07:01:19;;;;;;;1.00;0.50;;;12.10;1.00;;;;;;7371294;19;20577;-67
2023/03/13 07:03:50;;;;;;;1.08;0.50;;;12.10;1.00;;;;;;7371378;19;20018;-66
2023/03/13 07:06:20;;;;;;;1.15;0.50;;;12.10;1.00;;;;;;7393590;19;20028;-66
2023/03/13 07:08:50;;;;;;;0.65;0.32;;;12.10;1.10;;;;;;7372384;19;20518;-66
2023/03/13 07:11:19;;;;;;;1.38;0.40;;;12.20;1.50;;;;;;7369784;19;20011;-66
2023/03/13 07:13:52;;;;;;;0.90;0.47;;;12.20;1.00;;;;;;7371053;19;20082;-65
2023/03/13 07:16:26;;;;;;;1.15;0.50;;;12.20;1.20;;;;;;7372186;19;20010;-67
2023/03/13 07:18:56;;;;;;;1.27;0.50;;;12.20;1.80;;;;;;7369578;19;20011;-66
2023/03/13 07:21:26;;;;;;;0.88;0.45;;;12.20;1.80;;;;;;7391888;19;20007;-66
2023/03/13 07:23:56;;;;;;;0.57;0.32;;;12.30;1.90;;;;;;7370132;19;20134;-66
2023/03/13 07:26:26;;;;;;;1.02;0.45;;;12.30;1.90;;;;;;7371413;19;20011;-67
2023/03/13 07:28:58;;;;;;;1.05;0.45;;;12.30;1.90;;;;;;7371357;19;20022;-67
2023/03/13 07:31:32;;;;;;;0.60;0.50;;;12.30;1.80;;;;;;7369657;19;20450;-66
2023/03/13 07:34:02;;;;;;;0.80;0.45;;;12.30;1.90;;;;;;7371678;19;20015;-66
2023/03/13 07:36:34;;;;;;;1.00;0.50;;;12.30;1.90;;;;;;7393249;19;20028;-66
2023/03/13 07:39:04;;;;;;;1.60;0.50;;;12.30;2.70;;;;;;7369174;19;20380;-67
2023/03/13 07:41:33;;;;;;;2.10;0.63;;;12.30;3.00;;;;;;7369803;19;20021;-66
2023/03/13 07:44:06;;;;;;;2.17;1.00;;;12.40;2.60;;;;;;7370095;19;20017;-66
2023/03/13 07:46:36;;;;;;;2.55;0.90;;;12.30;2.20;;;;;;7368912;19;20635;-67
2023/03/13 07:49:05;;;;;;;1.00;0.70;;;12.30;2.30;;;;;;7370404;19;20014;-65
2023/03/13 07:51:35;;;;;;;1.13;0.50;;;12.40;1.90;;;;;;7369744;19;20628;-66
2023/03/13 07:54:13;;;;;;;0.60;0.43;;;12.50;2.00;;;;;;7392001;19;20185;-66
2023/03/13 07:56:42;;;;;;;1.00;0.65;;;12.50;2.00;;;;;;7370520;19;20011;-66
2023/03/13 07:59:15;;;;;;;0.63;0.40;;;12.60;2.00;;;;;;7369412;19;20014;-66
2023/03/13 08:01:44;;;;;;;1.33;0.50;;;12.60;1.90;;;;;;7369254;19;20462;-65
2023/03/13 08:04:15;;;;;;;1.42;0.40;;;12.70;2.10;;;;;;7371608;19;20604;-66
2023/03/13 08:06:45;;;;;;;0.60;0.30;;;12.70;1.00;;;;;;7371455;19;20014;-66
2023/03/13 08:09:15;;;;;;;2.60;0.60;;;12.80;1.00;;;;;;7391918;19;20014;-66
2023/03/13 08:11:46;;;;;;;2.67;0.60;;;12.90;1.00;;;;;;7370146;19;20351;-66
2023/03/13 08:14:19;;;;;;;1.27;0.57;;;13.00;1.00;;;;;;7370033;19;20011;-66
2023/03/13 08:16:49;;;;;;;0.93;0.40;;;13.10;1.00;;;;;;7370842;19;20044;-66
2023/03/13 08:19:19;;;;;;;0.75;0.52;;;13.20;1.00;;;;;;7368401;19;20006;-66
2023/03/13 08:21:48;;;;;;;0.98;0.50;;;13.20;1.00;;;;;;7369281;19;20019;-66
2023/03/13 08:24:18;;;;;;;0.80;0.47;;;13.40;1.00;;;;;;7392160;19;20015;-66
2023/03/13 08:26:48;;;;;;;0.52;0.40;;;13.50;1.00;;;;;;7370697;19;20013;-66
2023/03/13 08:29:20;;;;;;;8.82;4.70;;;13.50;1.00;;;;;;7368971;19;20022;-66
2023/03/13 08:31:51;;;;;;;0.75;0.50;;;13.70;1.00;;;;;;7368262;19;20034;-65
2023/03/13 08:34:21;;;;;;;0.95;0.50;;;13.70;1.00;;;;;;7368244;19;20011;-66
2023/03/13 08:36:51;;;;;;;1.17;0.60;;;13.80;1.00;;;;;;7369645;19;20018;-65
2023/03/13 08:39:22;;;;;;;0.80;0.40;;;14.00;1.00;;;;;;7388469;19;20078;-66
2023/03/13 08:41:52;;;;;;;0.55;0.40;;;14.00;1.00;;;;;;7367324;19;20003;-66
2023/03/13 08:44:24;;;;;;;2.97;0.77;;;14.10;1.00;;;;;;7368746;19;20007;-65
2023/03/13 08:46:55;;;;;;;1.13;0.60;;;14.10;1.00;;;;;;7369448;19;20045;-66
2023/03/13 08:49:25;;;;;;;1.77;0.82;;;14.20;1.00;;;;;;7366801;19;20480;-66
2023/03/13 08:51:55;;;;;;;0.93;0.60;;;14.20;1.00;;;;;;7367862;19;20037;-67
2023/03/13 08:54:25;;;;;;;0.85;0.60;;;14.20;1.00;;;;;;7390463;19;20024;-67
2023/03/13 08:56:55;;;;;;;1.50;0.80;;;14.20;1.00;;;;;;7367797;19;20011;-65
2023/03/13 08:59:28;;;;;;;0.95;0.57;;;14.30;1.00;;;;;;7366243;19;20025;-66
2023/03/13 09:01:57;;;;;;;1.10;0.55;;;14.30;1.00;;;;;;7367703;19;20471;-66
2023/03/13 09:04:27;;;;;;;1.13;0.85;;;14.30;1.00;;;;;;7368345;19;20018;-66
2023/03/13 09:06:57;;;;;;;2.75;0.60;;;14.30;1.00;;;;;;7369232;19;20022;-66
2023/03/13 09:09:27;;;;;;;1.70;0.60;;;14.40;1.00;;;;;;7389140;19;20010;-66
2023/03/13 09:11:57;;;;;;;3.78;1.17;;;14.30;1.00;;;;;;7366783;19;20010;-66
2023/03/13 09:14:29;;;;;;;1.95;0.70;;;14.30;1.00;;;;;;7368035;19;20010;-66
2023/03/13 09:16:59;;;;;;;1.00;0.75;;;14.30;1.00;;;;;;7368931;19;20011;-66
2023/03/13 09:19:30;;;;;;;1.55;1.20;;;14.40;1.00;;;;;;7365895;19;20011;-67
2023/03/13 09:22:00;;;;;;;1.60;0.80;;;14.40;1.00;;;;;;7367106;19;20028;-67
2023/03/13 09:24:29;;;;;;;1.30;0.57;;;14.50;1.00;;;;;;7389405;19;20015;-66
2023/03/13 09:26:59;;;;;;;2.95;0.93;;;14.60;1.00;;;;;;7368180;19;20018;-67
2023/03/13 09:29:36;;;;;;;1.55;0.80;;;14.80;1.00;;;;;;7366329;19;20559;-66
2023/03/13 09:32:07;;;;;;;1.38;0.60;;;15.00;1.00;;;;;;7368035;19;20034;-65
2023/03/13 09:34:37;;;;;;;1.67;1.00;;;15.00;1.00;;;;;;7366743;19;20103;-66
2023/03/13 09:37:07;;;;;;;4.40;1.02;;;14.90;1.00;;;;;;7368478;19;20021;-66
2023/03/13 09:39:38;;;;;;;4.43;0.90;;;15.00;1.00;;;;;;7364805;19;20018;-68
2023/03/13 09:42:15;;;;;;;1.50;1.00;;;15.00;1.00;;;;;;7388123;19;20025;-66
2023/03/13 09:44:54;;;;;;;2.85;1.20;;;15.00;1.00;;;;;;7366909;19;20015;-66
2023/03/13 09:47:29;;;;;;;2.80;1.08;;;15.00;1.00;;;;;;7368369;19;20015;-66
2023/03/13 09:50:04;;;;;;;2.55;0.93;;;15.10;1.00;;;;;;7365176;19;20090;-66
2023/03/13 09:52:40;;;;;;;1.90;1.40;;;15.40;1.00;;;;;;7366030;19;20097;-66
2023/03/13 09:55:15;;;;;;;2.55;1.30;;;15.60;1.00;;;;;;7367656;19;20014;-66
2023/03/13 09:57:51;;;;;;;1.63;1.05;;;15.90;1.00;;;;;;7367637;19;20110;-65
2023/03/13 10:00:27;;;;;;;2.38;1.15;;;16.00;1.00;;;;;;7385363;19;20090;-66
2023/03/13 10:02:58;;;;;;;2.13;1.10;;;16.10;1.00;;;;;;7365700;19;20478;-65
2023/03/13 10:05:30;;;;;;;7.82;2.83;;;16.00;1.00;;;;;;7366855;19;20081;-65
2023/03/13 10:08:11;;;;;;;2.72;1.25;;;16.10;1.00;;;;;;7371332;19;20010;-65
2023/03/13 10:10:46;;;;;;;7.70;1.20;;;16.20;1.00;;;;;;7371682;19;20139;-66
2023/03/13 10:13:23;;;;;;;2.85;1.20;;;16.30;1.00;;;;;;7374327;19;20498;-66
2023/03/13 10:15:59;;;;;;;2.92;1.25;;;16.50;1.00;;;;;;7375360;19;20027;-66
2023/03/13 10:18:29;;;;;;;3.28;1.20;;;16.50;1.00;;;;;;7394364;19;20035;-65
2023/03/13 10:21:01;;;;;;;4.10;1.00;;;16.50;1.00;;;;;;7369910;19;20010;-65
2023/03/13 10:23:39;;;;;;;3.63;1.40;;;16.50;1.00;;;;;;7372881;19;20018;-65
2023/03/13 10:26:16;;;;;;;2.67;1.17;;;16.50;1.00;;;;;;7374580;19;20017;-67
2023/03/13 10:28:46;;;;;;;3.05;1.10;;;16.50;1.00;;;;;;7366888;19;20015;-65
2023/03/13 10:31:24;;;;;;;2.83;1.33;;;16.60;1.00;;;;;;7371706;19;20027;-65
2023/03/13 10:33:54;;;;;;;2.75;1.20;;;16.80;1.00;;;;;;7371913;19;20015;-65
2023/03/13 10:36:24;;;;;;;2.40;1.08;;;16.90;1.00;;;;;;7392017;19;20038;-66
2023/03/13 10:38:56;;;;;;;5.00;1.10;;;17.00;1.00;;;;;;7371845;19;20010;-66
2023/03/13 10:41:29;;;;;;;2.45;1.20;;;16.90;1.00;;;;;;7370209;19;20019;-65
2023/03/13 10:44:02;;;;;;;1.77;1.60;;;16.70;1.00;;;;;;7373278;19;20131;-66
2023/03/13 10:46:37;;;;;;;1.88;1.02;;;16.70;1.00;;;;;;7372904;19;20082;-67
2023/03/13 10:49:16;;;;;;;3.42;1.52;;;16.70;1.00;;;;;;7371625;19;20014;-66
2023/03/13 10:51:50;;;;;;;2.95;1.00;;;16.70;1.00;;;;;;7371192;19;20017;-66
2023/03/13 10:54:25;;;;;;;3.00;1.17;;;16.50;1.00;;;;;;7392667;19;20017;-66
2023/03/13 10:57:12;;;;;;;3.88;1.30;;;16.50;1.00;;;;;;7373091;19;20383;-65
2023/03/13 10:59:46;;;;;;;3.53;1.20;;;16.80;1.00;;;;;;7370138;19;20010;-66
2023/03/13 11:02:26;;;;;;;;;;;17.00;1.00;;;;;;7372033;19;20037;-68
2023/03/13 11:04:58;;;;;;;2.22;1.38;;;16.90;1.00;;;;;;7371695;19;19921;-65
2023/03/13 11:07:31;;;;;;;3.03;1.10;;;17.00;1.00;;;;;;7372937;19;20013;-65
2023/03/13 11:10:04;;;;;;;2.05;1.25;;;17.10;1.00;;;;;;7369992;19;20105;-66
2023/03/13 11:12:36;;;;;;;2.08;1.20;;;17.10;1.00;;;;;;7382139;19;20134;-66
2023/03/13 11:15:17;;;;;;;2.70;1.35;;;17.10;1.00;;;;;;7394189;19;20022;-65
2023/03/13 11:18:00;;;;;;;3.38;1.40;;;17.10;1.00;;;;;;7372647;19;20086;-65
2023/03/13 11:20:34;;;;;;;2.47;1.40;;;17.20;1.00;;;;;;7365370;19;20010;-65
2023/03/13 11:23:12;;;;;;;;;;;17.30;1.00;;;;;;7372132;19;20497;-65
2023/03/13 11:25:49;;;;;;;3.38;1.30;;;17.40;1.00;;;;;;7370674;19;19946;-66
2023/03/13 11:28:31;;;;;;;3.03;1.27;;;17.70;1.00;;;;;;7372013;19;20110;-66
2023/03/13 11:31:21;;;;;;;2.22;1.20;;;17.60;1.00;;;;;;7368632;19;20013;-66
2023/03/13 11:34:00;;;;;;;2.25;1.20;;;17.80;1.00;;;;;;7370716;19;20014;-66
2023/03/13 11:36:36;;;;;;;2.47;1.02;;;17.90;1.00;;;;;;7393486;19;20410;-64
2023/03/13 11:39:27;;;;;;;5.28;1.40;;;18.10;1.00;;;;;;7371503;19;20498;-67
2023/03/13 11:42:02;;;;;;;3.05;1.20;;;18.10;1.00;;;;;;7369746;19;20006;-65
2023/03/13 11:44:38;;;;;;;4.35;1.50;;;18.20;1.00;;;;;;7370320;19;20029;-67
2023/03/13 11:47:27;;;;;;;1.70;1.48;;;18.20;1.00;;;;;;7371523;19;20011;-64
2023/03/13 11:50:20;;;;;;;4.80;1.20;;;18.10;1.00;;;;;;7368681;19;20014;-65
2023/03/13 11:53:02;;;;;;;1.65;1.17;;;18.20;1.00;;;;;;7370392;19;20395;-65
2023/03/13 11:55:45;;;;;;;3.17;1.38;;;18.20;1.00;;;;;;7370401;19;20370;-64
2023/03/13 11:58:40;;;;;;;2.05;1.30;;;18.30;1.00;;;;;;7371082;19;20014;-65
2023/03/13 12:01:13;;;;;;;1.98;1.10;;;18.40;1.00;;;;;;7364982;19;20010;-65
2023/03/13 12:03:53;;;;;;;3.08;1.20;;;18.40;1.00;;;;;;7370039;19;20011;-65
2023/03/13 12:06:31;;;;;;;2.08;1.20;;;18.60;1.00;;;;;;7392225;19;20109;-65
2023/03/13 12:09:08;;;;;;;1.80;1.20;;;18.60;1.00;;;;;;7370535;19;20014;-65
2023/03/13 12:11:42;;;;;;;3.22;1.10;;;18.80;1.00;;;;;;7368438;19;20014;-64
2023/03/13 12:14:20;;;;;;;3.45;1.30;;;18.80;1.00;;;;;;7369889;19;20395;-65
2023/03/13 12:16:53;;;;;;;2.58;1.20;;;18.80;1.00;;;;;;7370797;19;20014;-65
2023/03/13 12:19:31;;;;;;;1.40;1.20;;;18.80;1.00;;;;;;7369083;19;20018;-64
2023/03/13 12:22:15;;;;;;;4.05;1.58;;;18.90;1.00;;;;;;7368636;19;20017;-65
2023/03/13 12:24:51;;;;;;;6.30;1.58;;;19.10;1.00;;;;;;7370469;19;20014;-65
2023/03/13 12:27:31;;;;;;;1.75;1.10;;;19.10;1.00;;;;;;7390827;19;20011;-65
2023/03/13 12:30:05;;;;;;;2.83;1.20;;;18.90;1.00;;;;;;7365791;19;20011;-65
2023/03/13 12:32:41;;;;;;;2.03;1.17;;;19.00;1.00;;;;;;7367076;19;20011;-65
2023/03/13 12:35:22;;;;;;;4.32;1.27;;;19.10;1.00;;;;;;7369843;19;20010;-64
2023/03/13 12:37:59;;;;;;;3.15;1.10;;;19.10;1.00;;;;;;7369983;19;20474;-64
2023/03/13 12:40:36;;;;;;;1.35;1.02;;;19.10;1.00;;;;;;7365503;19;20386;-64
2023/03/13 12:43:11;;;;;;;2.30;1.17;;;19.20;1.00;;;;;;7369161;19;20371;-65
2023/03/13 12:45:56;;;;;;;7.28;1.13;;;19.30;1.00;;;;;;7369909;19;20035;-65
2023/03/13 12:48:42;;;;;;;3.13;1.15;;;19.40;1.00;;;;;;7390154;19;20014;-64
2023/03/13 12:51:28;;;;;;;1.42;0.95;;;19.30;1.00;;;;;;7367297;19;20017;-64
2023/03/13 12:54:30;;;;;;;3.35;1.20;;;19.40;1.00;;;;;;7368067;19;20003;-65
2023/03/13 12:57:23;;;;;;;7.88;1.80;;;19.50;1.00;;;;;;7370092;19;20351;-65
2023/03/13 12:59:57;;;;;;;2.33;1.00;;;19.60;1.00;;;;;;7366733;19;20450;-65
2023/03/13 13:02:31;;;;;;;1.85;0.80;;;19.70;1.00;;;;;;7367155;19;20021;-65
2023/03/13 13:05:03;;;;;;;1.98;0.80;;;19.70;1.00;;;;;;7368647;19;20074;-65
2023/03/13 13:07:35;;;;;;;1.50;0.90;;;19.70;1.00;;;;;;7369972;19;20382;-65
2023/03/13 13:10:22;;;;;;;2.80;1.13;;;19.70;1.00;;;;;;7367753;19;20085;-65
2023/03/13 13:13:19;;;;;;;1.00;0.73;;;19.60;1.00;;;;;;7369050;19;20030;-65
2023/03/13 13:16:00;;;;;;;1.95;0.90;;;19.50;1.00;;;;;;7369581;19;20022;-65
2023/03/13 13:18:31;;;;;;;3.08;1.00;;;19.70;1.00;;;;;;7389977;19;20026;-65
2023/03/13 13:21:28;;;;;;;3.78;1.50;;;19.80;1.00;;;;;;7365791;19;20021;-64
2023/03/13 13:24:35;;;;;;;2.17;0.93;;;20.10;1.00;;;;;;7366361;19;20007;-64
2023/03/13 13:27:45;;;;;;;4.72;0.98;;;20.20;1.00;;;;;;7366642;19;20011;-65
2023/03/13 13:30:31;;;;;;;1.38;0.77;;;20.20;1.00;;;;;;7359206;19;20011;-65
2023/03/13 13:33:31;;;;;;;1.45;0.80;;;20.10;1.00;;;;;;7368541;19;20474;-64